createdAt,value
2018-09-15T00:01:16.537Z,7.80
2018-09-15T00:03:45.166Z,6.93
2018-09-15T00:06:13.669Z,7.57
2018-09-15T00:08:42.189Z,7.07
2018-09-15T00:11:10.683Z,7.17
2018-09-15T00:13:39.255Z,7.73
2018-09-15T00:16:07.796Z,6.80
2018-09-15T00:18:36.355Z,7.03
2018-09-15T00:21:04.874Z,6.73
2018-09-15T00:23:33.411Z,6.73
2018-09-15T00:26:01.914Z,8.10
2018-09-15T00:28:30.453Z,9.77
2018-09-15T00:30:58.958Z,6.27
2018-09-15T00:33:27.498Z,9.87
2018-09-15T00:35:56.118Z,6.60
2018-09-15T00:38:24.650Z,6.33
2018-09-15T00:40:53.157Z,6.67
2018-09-15T00:43:21.670Z,6.47
2018-09-15T00:45:50.205Z,7.67
2018-09-15T00:48:18.700Z,7.60
2018-09-15T00:50:47.245Z,5.83
2018-09-15T00:53:15.742Z,7.10
2018-09-15T00:55:44.281Z,6.27
2018-09-15T00:58:12.789Z,7.13
2018-09-15T01:00:41.322Z,6.10
2018-09-15T01:03:09.828Z,5.97
2018-09-15T01:05:38.357Z,7.67
2018-09-15T01:08:07.285Z,6.13
2018-09-15T01:10:35.822Z,6.63
2018-09-15T01:13:04.392Z,6.20
2018-09-15T01:15:32.961Z,7.47
2018-09-15T01:18:01.481Z,7.90
2018-09-15T01:20:30.079Z,6.73
2018-09-15T01:22:58.611Z,6.03
2018-09-15T01:25:27.161Z,6.00
2018-09-15T01:27:55.697Z,7.23
2018-09-15T01:30:24.251Z,7.57
2018-09-15T01:32:52.761Z,5.93
2018-09-15T01:35:21.309Z,5.90
2018-09-15T01:37:49.855Z,7.77
2018-09-15T01:40:18.431Z,5.27
2018-09-15T01:42:46.982Z,5.17
2018-09-15T01:45:15.532Z,6.27
2018-09-15T01:47:44.059Z,7.20
2018-09-15T01:50:12.640Z,8.37
2018-09-15T01:52:41.172Z,6.30
2018-09-15T01:55:09.701Z,6.77
2018-09-15T01:57:38.284Z,5.63
2018-09-15T02:00:06.798Z,5.83
2018-09-15T02:02:35.298Z,6.27
2018-09-15T02:05:03.877Z,8.70
2018-09-15T02:07:32.404Z,6.67
2018-09-15T02:10:00.992Z,6.27
2018-09-15T02:12:29.845Z,6.03
2018-09-15T02:14:58.392Z,5.23
2018-09-15T02:17:26.913Z,9.50
2018-09-15T02:19:55.453Z,8.73
2018-09-15T02:22:24.291Z,5.87
2018-09-15T02:24:52.834Z,6.47
2018-09-15T02:27:21.378Z,5.17
2018-09-15T02:29:49.969Z,5.23
2018-09-15T02:32:18.530Z,5.57
2018-09-15T02:34:47.061Z,5.97
2018-09-15T02:37:15.595Z,4.40
2018-09-15T02:39:44.110Z,7.67
2018-09-15T02:42:12.677Z,6.40
2018-09-15T02:44:41.193Z,7.60
2018-09-15T02:47:09.725Z,7.47
2018-09-15T02:49:38.257Z,6.57
2018-09-15T02:52:07.212Z,5.33
2018-09-15T02:54:35.970Z,4.97
2018-09-15T02:57:04.549Z,4.60
2018-09-15T02:59:33.069Z,7.03
2018-09-15T03:02:01.608Z,6.17
2018-09-15T03:04:30.117Z,5.43
2018-09-15T03:06:58.668Z,8.77
2018-09-15T03:09:27.162Z,5.70
2018-09-15T03:11:55.738Z,6.90
2018-09-15T03:14:24.367Z,5.33
2018-09-15T03:16:52.922Z,7.30
2018-09-15T03:19:22.178Z,5.00
2018-09-15T03:21:50.790Z,9.60
2018-09-15T03:24:19.306Z,5.47
2018-09-15T03:26:47.836Z,6.53
2018-09-15T03:29:16.349Z,5.47
2018-09-15T03:31:44.891Z,6.57
2018-09-15T03:34:13.406Z,4.40
2018-09-15T03:36:41.952Z,7.97
2018-09-15T03:39:11.738Z,5.87
2018-09-15T03:41:40.570Z,6.83
2018-09-15T03:44:09.130Z,6.47
2018-09-15T03:46:37.836Z,6.37
2018-09-15T03:49:06.557Z,6.07
2018-09-15T03:54:05.211Z,8.10
2018-09-15T03:56:33.770Z,5.43
2018-09-15T03:59:02.286Z,7.33
2018-09-15T04:01:30.822Z,9.13
2018-09-15T04:03:59.329Z,5.23
2018-09-15T04:06:27.885Z,4.67
2018-09-15T04:08:56.386Z,5.80
2018-09-15T04:11:24.945Z,8.70
2018-09-15T04:13:53.455Z,8.90
2018-09-15T04:16:21.995Z,6.00
2018-09-15T04:18:50.501Z,6.80
2018-09-15T04:21:19.029Z,6.50
2018-09-15T04:23:47.571Z,8.73
2018-09-15T04:26:16.065Z,6.53
2018-09-15T04:28:44.752Z,6.97
2018-09-15T04:31:13.259Z,4.93
2018-09-15T04:33:42.018Z,7.33
2018-09-15T04:36:10.529Z,6.23
2018-09-15T04:38:39.350Z,6.63
2018-09-15T04:41:08.098Z,5.80
2018-09-15T04:43:36.638Z,7.00
2018-09-15T04:46:05.675Z,5.10
2018-09-15T04:48:34.222Z,6.80
2018-09-15T04:51:02.736Z,5.97
2018-09-15T04:53:31.260Z,5.20
2018-09-15T04:55:59.782Z,11.53
2018-09-15T04:58:28.317Z,6.07
2018-09-15T05:00:56.876Z,7.43
2018-09-15T05:03:25.461Z,14.97
2018-09-15T05:05:53.953Z,5.40
2018-09-15T05:08:22.488Z,10.43
2018-09-15T05:10:51.014Z,13.47
2018-09-15T05:13:19.564Z,8.33
2018-09-15T05:15:48.073Z,5.47
2018-09-15T05:18:16.633Z,13.90
2018-09-15T05:20:45.145Z,12.80
2018-09-15T05:23:13.711Z,12.53
2018-09-15T05:25:42.251Z,9.73
2018-09-15T05:28:10.793Z,8.93
2018-09-15T05:30:39.303Z,6.33
2018-09-15T05:33:07.841Z,6.17
2018-09-15T05:35:36.344Z,7.03
2018-09-15T05:38:04.889Z,5.93
2018-09-15T05:40:33.418Z,6.37
2018-09-15T05:43:01.951Z,5.30
2018-09-15T05:45:30.456Z,6.83
2018-09-15T05:47:59.076Z,4.97
2018-09-15T05:50:27.631Z,6.73
2018-09-15T05:52:56.252Z,6.20
2018-09-15T05:55:24.762Z,8.77
2018-09-15T05:57:53.296Z,7.07
2018-09-15T06:00:21.933Z,11.10
2018-09-15T06:02:50.464Z,8.80
2018-09-15T06:05:19.006Z,6.73
2018-09-15T06:07:47.649Z,9.10
2018-09-15T06:10:16.117Z,7.20
2018-09-15T06:12:44.669Z,9.90
2018-09-15T06:15:13.192Z,6.90
2018-09-15T06:17:41.720Z,7.27
2018-09-15T06:20:10.241Z,6.87
2018-09-15T06:22:38.769Z,9.07
2018-09-15T06:25:07.312Z,10.30
2018-09-15T06:27:35.841Z,7.77
2018-09-15T06:30:04.801Z,7.00
2018-09-15T06:32:33.333Z,11.10
2018-09-15T06:35:01.953Z,10.50
2018-09-15T06:37:30.490Z,7.03
2018-09-15T06:39:59.046Z,6.77
2018-09-15T06:42:27.729Z,10.67
2018-09-15T06:44:56.299Z,6.83
2018-09-15T06:47:25.392Z,8.47
2018-09-15T06:49:53.934Z,8.63
2018-09-15T06:52:22.447Z,9.53
2018-09-15T06:54:51.009Z,8.50
2018-09-15T06:57:19.518Z,12.60
2018-09-15T06:59:48.041Z,8.07
2018-09-15T07:02:16.548Z,7.67
2018-09-15T07:04:45.096Z,9.00
2018-09-15T07:07:13.613Z,14.40
2018-09-15T07:09:42.155Z,9.60
2018-09-15T07:12:10.698Z,11.43
2018-09-15T07:14:39.277Z,12.70
2018-09-15T07:17:07.803Z,13.77
2018-09-15T07:19:36.353Z,8.70
2018-09-15T07:22:04.883Z,11.27
2018-09-15T07:24:33.449Z,11.00
2018-09-15T07:27:01.974Z,9.93
2018-09-15T07:29:30.507Z,9.80
2018-09-15T07:31:59.101Z,10.47
2018-09-15T07:34:27.656Z,12.87
2018-09-15T07:36:56.177Z,10.67
2018-09-15T07:39:24.789Z,14.07
2018-09-15T07:41:53.314Z,12.30
2018-09-15T07:44:21.856Z,14.03
2018-09-15T07:46:50.385Z,9.60
2018-09-15T07:49:18.983Z,12.87
2018-09-15T07:51:47.509Z,9.90
2018-09-15T07:54:16.084Z,11.70
2018-09-15T07:56:44.643Z,14.00
2018-09-15T07:59:13.249Z,10.40
2018-09-15T08:01:41.779Z,10.57
2018-09-15T08:04:10.388Z,14.30
2018-09-15T08:06:39.103Z,14.80
2018-09-15T08:09:07.889Z,8.37
2018-09-15T08:11:36.657Z,10.83
2018-09-15T08:14:05.475Z,12.23
2018-09-15T08:16:34.013Z,11.47
2018-09-15T08:19:02.570Z,13.47
2018-09-15T08:21:31.065Z,8.30
2018-09-15T08:23:59.595Z,8.33
2018-09-15T08:26:28.163Z,11.60
2018-09-15T08:28:56.661Z,8.90
2018-09-15T08:31:25.196Z,9.53
2018-09-15T08:33:53.732Z,7.90
2018-09-15T08:36:22.216Z,8.17
2018-09-15T08:38:50.751Z,11.40
2018-09-15T08:41:19.399Z,8.13
2018-09-15T08:43:47.861Z,10.00
2018-09-15T08:46:16.394Z,9.17
2018-09-15T08:48:45.453Z,11.03
2018-09-15T08:51:14.053Z,7.97
2018-09-15T08:53:42.660Z,13.17
2018-09-15T08:56:11.218Z,10.53
2018-09-15T08:58:40.334Z,12.17
2018-09-15T09:01:08.870Z,6.83
2018-09-15T09:03:37.417Z,8.23
2018-09-15T09:06:05.937Z,9.03
2018-09-15T09:08:34.452Z,8.73
2018-09-15T09:11:03.113Z,11.20
2018-09-15T09:13:31.748Z,7.80
2018-09-15T09:16:00.294Z,12.33
2018-09-15T09:18:28.834Z,8.10
2018-09-15T09:20:57.394Z,7.30
2018-09-15T09:23:25.913Z,14.77
2018-09-15T09:25:54.480Z,7.97
2018-09-15T09:28:23.013Z,10.87
2018-09-15T09:30:51.821Z,10.67
2018-09-15T09:33:21.003Z,13.43
2018-09-15T09:35:49.522Z,12.03
2018-09-15T09:38:18.111Z,8.77
2018-09-15T09:40:47.590Z,8.13
2018-09-15T09:43:16.157Z,11.57
2018-09-15T09:45:44.729Z,13.97
2018-09-15T09:48:13.256Z,16.03
2018-09-15T09:50:41.813Z,9.87
2018-09-15T09:53:10.328Z,11.63
2018-09-15T09:55:38.894Z,11.23
2018-09-15T09:58:07.439Z,11.83
2018-09-15T10:00:42.626Z,11.63
2018-09-15T10:03:11.189Z,11.73
2018-09-15T10:05:40.680Z,10.23
2018-09-15T10:08:09.219Z,8.70
2018-09-15T10:10:37.764Z,9.43
2018-09-15T10:13:06.485Z,10.20
2018-09-15T10:15:35.069Z,9.23
2018-09-15T10:18:03.602Z,5.67
2018-09-15T10:20:32.140Z,7.60
2018-09-15T10:23:00.793Z,6.10
2018-09-15T10:25:29.360Z,6.37
2018-09-15T10:27:57.878Z,7.53
2018-09-15T10:30:26.498Z,5.73
2018-09-15T10:32:55.044Z,5.40
2018-09-15T10:35:24.055Z,5.47
2018-09-15T10:37:52.637Z,3.60
2018-09-15T10:40:21.201Z,7.30
2018-09-15T10:42:49.867Z,4.77
2018-09-15T10:45:18.457Z,8.70
2018-09-15T10:47:47.003Z,7.30
2018-09-15T10:50:15.689Z,10.53
2018-09-15T10:52:44.245Z,7.73
2018-09-15T10:55:13.037Z,4.53
2018-09-15T10:57:41.585Z,11.37
2018-09-15T11:00:10.221Z,10.27
2018-09-15T11:02:38.734Z,7.37
2018-09-15T11:05:07.276Z,6.33
2018-09-15T11:07:35.801Z,7.80
2018-09-15T11:10:04.395Z,7.00
2018-09-15T11:12:32.977Z,8.37
2018-09-15T11:15:08.058Z,8.37
2018-09-15T11:17:36.599Z,7.63
2018-09-15T11:20:05.261Z,5.67
2018-09-15T11:22:33.787Z,4.70
2018-09-15T11:25:02.309Z,5.63
2018-09-15T11:27:30.848Z,4.93
2018-09-15T11:29:59.357Z,3.90
2018-09-15T11:32:27.898Z,4.80
2018-09-15T11:34:56.446Z,5.80
2018-09-15T11:37:24.996Z,6.83
2018-09-15T11:39:53.522Z,3.83
2018-09-15T11:42:22.074Z,4.53
2018-09-15T11:44:50.580Z,3.70
2018-09-15T11:47:19.288Z,3.57
2018-09-15T11:49:47.795Z,6.93
2018-09-15T11:52:16.393Z,6.17
2018-09-15T11:54:44.962Z,6.40
2018-09-15T11:57:13.624Z,5.60
2018-09-15T11:59:42.178Z,4.70
2018-09-15T12:02:10.926Z,4.63
2018-09-15T12:04:39.684Z,4.30
2018-09-15T12:07:08.248Z,3.47
2018-09-15T12:09:36.762Z,4.27
2018-09-15T12:12:05.378Z,2.67
2018-09-15T12:14:33.897Z,5.00
2018-09-15T12:17:02.569Z,3.77
2018-09-15T12:19:31.191Z,8.43
2018-09-15T12:21:59.738Z,2.43
2018-09-15T12:24:28.278Z,3.60
2018-09-15T12:26:56.900Z,4.93
2018-09-15T12:29:25.427Z,2.63
2018-09-15T12:31:53.987Z,4.87
2018-09-15T12:34:22.533Z,2.53
2018-09-15T12:36:51.482Z,3.63
2018-09-15T12:39:20.073Z,2.00
2018-09-15T12:41:48.615Z,3.67
2018-09-15T12:44:17.145Z,5.17
2018-09-15T12:46:45.675Z,3.23
2018-09-15T12:49:14.214Z,2.50
2018-09-15T12:51:42.734Z,4.33
2018-09-15T12:54:11.256Z,1.33
2018-09-15T12:56:39.834Z,2.57
2018-09-15T12:59:08.372Z,3.63
2018-09-15T13:01:36.914Z,3.77
2018-09-15T13:04:05.462Z,1.17
2018-09-15T13:06:34.052Z,4.10
2018-09-15T13:09:02.597Z,1.90
2018-09-15T13:11:31.148Z,2.90
2018-09-15T13:13:59.681Z,4.50
2018-09-15T13:16:28.194Z,1.07
2018-09-15T13:18:56.805Z,1.67
2018-09-15T13:21:25.325Z,2.60
2018-09-15T13:23:53.853Z,2.60
2018-09-15T13:26:22.353Z,2.17
2018-09-15T13:28:50.906Z,3.13
2018-09-15T13:31:19.443Z,2.67
2018-09-15T13:33:47.986Z,2.53
2018-09-15T13:36:16.515Z,2.27
2018-09-15T13:38:45.061Z,2.70
2018-09-15T13:41:13.572Z,0.80
2018-09-15T13:43:42.121Z,1.93
2018-09-15T13:46:10.628Z,3.83
2018-09-15T13:48:39.164Z,4.77
2018-09-15T13:51:07.689Z,4.03
2018-09-15T13:53:36.232Z,1.10
2018-09-15T13:56:04.769Z,1.90
2018-09-15T13:58:33.334Z,2.97
2018-09-15T14:01:01.905Z,1.93
2018-09-15T14:03:30.438Z,2.23
2018-09-15T14:05:58.963Z,1.40
2018-09-15T14:08:27.559Z,2.67
2018-09-15T14:10:56.123Z,2.87
2018-09-15T14:13:24.682Z,1.07
2018-09-15T14:15:53.215Z,1.13
2018-09-15T14:18:21.758Z,0.93
2018-09-15T14:20:50.348Z,2.00
2018-09-15T14:23:18.882Z,1.57
2018-09-15T14:25:47.400Z,3.23
2018-09-15T14:28:16.199Z,1.00
2018-09-15T14:30:44.721Z,1.50
2018-09-15T14:33:13.289Z,2.03
2018-09-15T14:35:41.804Z,2.23
2018-09-15T14:38:10.334Z,2.40
2018-09-15T14:40:38.853Z,2.90
2018-09-15T14:43:07.415Z,1.27
2018-09-15T14:45:36.060Z,3.30
2018-09-15T14:48:04.765Z,1.47
2018-09-15T14:50:33.549Z,3.83
2018-09-15T14:53:02.399Z,2.07
2018-09-15T14:55:30.941Z,1.47
2018-09-15T14:57:59.468Z,3.73
2018-09-15T15:00:28.015Z,2.40
2018-09-15T15:02:59.350Z,1.77
2018-09-15T15:05:27.945Z,1.47
2018-09-15T15:07:56.579Z,1.30
2018-09-15T15:10:25.071Z,2.20
2018-09-15T15:12:53.622Z,3.63
2018-09-15T15:15:22.293Z,2.10
2018-09-15T15:17:50.706Z,2.07
2018-09-15T15:20:19.251Z,1.33
2018-09-15T15:22:47.776Z,2.87
2018-09-15T15:25:16.337Z,3.47
2018-09-15T15:27:44.899Z,1.73
2018-09-15T15:30:13.462Z,1.57
2018-09-15T15:32:42.022Z,2.40
2018-09-15T15:35:10.605Z,1.40
2018-09-15T15:37:39.143Z,5.20
2018-09-15T15:40:07.686Z,2.20
2018-09-15T15:42:36.196Z,0.90
2018-09-15T15:45:04.778Z,1.00
2018-09-15T15:47:33.354Z,1.83
2018-09-15T15:50:01.902Z,5.20
2018-09-15T15:52:30.420Z,3.33
2018-09-15T15:54:58.964Z,1.50
2018-09-15T15:57:27.478Z,3.13
2018-09-15T15:59:56.010Z,2.00
2018-09-15T16:02:24.522Z,3.10
2018-09-15T16:04:53.086Z,1.80
2018-09-15T16:07:21.603Z,1.50
2018-09-15T16:09:50.182Z,2.23
2018-09-15T16:12:18.720Z,3.33
2018-09-15T16:14:47.248Z,2.33
2018-09-15T16:17:15.801Z,3.20
2018-09-15T16:19:44.426Z,1.80
2018-09-15T16:22:12.909Z,1.00
2018-09-15T16:24:41.460Z,2.30
2018-09-15T16:27:20.923Z,2.43
2018-09-15T16:29:54.101Z,2.00
2018-09-15T16:32:22.789Z,3.03
2018-09-15T16:34:51.505Z,2.77
2018-09-15T16:37:20.039Z,3.40
2018-09-15T16:39:48.717Z,4.17
2018-09-15T16:42:17.466Z,4.67
2018-09-15T16:44:46.011Z,4.20
2018-09-15T16:47:14.526Z,1.60
2018-09-15T16:49:43.081Z,3.33
2018-09-15T16:52:11.585Z,2.70
2018-09-15T16:54:40.094Z,3.97
2018-09-15T16:57:08.655Z,2.03
2018-09-15T16:59:37.242Z,1.67
2018-09-15T17:02:05.837Z,2.53
2018-09-15T17:04:34.351Z,5.27
2018-09-15T17:07:02.914Z,2.40
2018-09-15T17:09:31.538Z,1.53
2018-09-15T17:12:00.239Z,2.73
2018-09-15T17:14:28.822Z,3.43
2018-09-15T17:16:57.373Z,3.97
2018-09-15T17:19:25.892Z,3.37
2018-09-15T17:21:54.430Z,2.90
2018-09-15T17:24:22.976Z,1.70
2018-09-15T17:26:51.530Z,2.33
2018-09-15T17:29:20.106Z,3.37
2018-09-15T17:31:48.654Z,6.30
2018-09-15T17:34:17.182Z,3.77
2018-09-15T17:36:45.727Z,4.30
2018-09-15T17:39:14.238Z,4.43
2018-09-15T17:41:42.795Z,6.27
2018-09-15T17:44:11.305Z,5.73
2018-09-15T17:46:39.846Z,11.83
2018-09-15T17:49:08.349Z,3.07
2018-09-15T17:51:36.938Z,2.63
2018-09-15T17:54:06.062Z,3.60
2018-09-15T17:56:34.610Z,4.83
2018-09-15T17:59:03.293Z,3.40
2018-09-15T18:01:32.001Z,3.10
2018-09-15T18:04:00.713Z,3.83
2018-09-15T18:06:29.458Z,4.27
2018-09-15T18:08:59.721Z,2.40
2018-09-15T18:12:27.423Z,2.80
2018-09-15T18:14:56.128Z,4.70
2018-09-15T18:17:24.897Z,2.37
2018-09-15T18:19:55.849Z,3.57
2018-09-15T18:22:25.069Z,5.70
2018-09-15T18:24:53.625Z,3.50
2018-09-15T18:27:22.189Z,4.03
2018-09-15T18:29:50.862Z,5.70
2018-09-15T18:32:19.401Z,2.93
2018-09-15T18:34:48.039Z,2.40
2018-09-15T18:37:16.579Z,5.07
2018-09-15T18:39:45.085Z,5.43
2018-09-15T18:42:13.634Z,7.07
2018-09-15T18:44:42.132Z,2.47
2018-09-15T18:47:10.674Z,4.77
2018-09-15T18:49:39.189Z,3.13
2018-09-15T18:52:07.785Z,1.63
2018-09-15T18:54:36.457Z,7.83
2018-09-15T18:57:05.022Z,4.60
2018-09-15T18:59:33.597Z,2.50
2018-09-15T19:02:02.138Z,1.53
2018-09-15T19:04:30.639Z,2.97
2018-09-15T19:06:59.182Z,3.90
2018-09-15T19:09:27.690Z,2.57
2018-09-15T19:11:56.250Z,2.30
2018-09-15T19:14:24.758Z,2.63
2018-09-15T19:16:53.317Z,2.03
2018-09-15T19:19:21.842Z,5.37
2018-09-15T19:21:50.661Z,3.10
2018-09-15T19:24:19.165Z,2.20
2018-09-15T19:26:47.813Z,3.60
2018-09-15T19:29:16.285Z,4.07
2018-09-15T19:31:44.834Z,6.57
2018-09-15T19:34:13.342Z,1.73
2018-09-15T19:36:41.889Z,3.30
2018-09-15T19:39:12.636Z,4.00
2018-09-15T19:41:41.274Z,5.37
2018-09-15T19:44:09.836Z,5.53
2018-09-15T19:46:39.056Z,2.83
2018-09-15T19:49:08.443Z,3.47
2018-09-15T19:51:37.001Z,2.40
2018-09-15T19:54:05.637Z,2.03
2018-09-15T19:56:34.226Z,4.17
2018-09-15T19:59:02.766Z,4.83
2018-09-15T20:01:31.361Z,2.47
2018-09-15T20:03:59.878Z,2.10
2018-09-15T20:06:28.401Z,4.97
2018-09-15T20:08:56.940Z,3.20
2018-09-15T20:11:25.809Z,2.40
2018-09-15T20:13:54.408Z,4.53
2018-09-15T20:16:21.792Z,4.20
2018-09-15T20:18:49.174Z,3.70
2018-09-15T20:21:16.542Z,5.30
2018-09-15T20:23:45.141Z,3.20
2018-09-15T20:26:13.653Z,2.93
2018-09-15T20:28:42.185Z,3.50
2018-09-15T20:31:10.745Z,4.17
2018-09-15T20:33:39.412Z,2.57
2018-09-15T20:36:07.946Z,3.20
2018-09-15T20:38:36.498Z,2.63
2018-09-15T20:41:05.058Z,6.47
2018-09-15T20:43:33.589Z,3.13
2018-09-15T20:46:02.098Z,2.10
2018-09-15T20:48:30.640Z,3.60
2018-09-15T20:50:59.174Z,3.10
2018-09-15T20:53:27.746Z,1.87
2018-09-15T20:55:56.289Z,3.70
2018-09-15T20:58:24.830Z,2.23
2018-09-15T21:00:53.686Z,2.63
2018-09-15T21:03:22.236Z,3.93
2018-09-15T21:05:50.862Z,6.63
2018-09-15T21:08:19.398Z,2.73
2018-09-15T21:10:48.341Z,3.60
2018-09-15T21:13:16.922Z,2.47
2018-09-15T21:15:45.502Z,3.17
2018-09-15T21:18:14.046Z,2.37
2018-09-15T21:20:42.558Z,4.27
2018-09-15T21:23:11.205Z,4.97
2018-09-15T21:25:39.701Z,2.47
2018-09-15T21:28:08.242Z,3.83
2018-09-15T21:30:36.749Z,7.10
2018-09-15T21:33:05.299Z,2.53
2018-09-15T21:35:33.813Z,6.07
2018-09-15T21:38:02.345Z,3.63
2018-09-15T21:40:30.860Z,3.00
2018-09-15T21:42:59.469Z,2.00
2018-09-15T21:45:28.000Z,6.10
2018-09-15T21:47:56.522Z,4.33
2018-09-15T21:50:25.065Z,3.93
2018-09-15T21:52:53.587Z,2.03
2018-09-15T21:55:22.132Z,4.60
2018-09-15T21:57:50.637Z,6.37
2018-09-15T22:00:19.218Z,2.60
2018-09-15T22:02:47.738Z,2.43
2018-09-15T22:05:16.297Z,3.83
2018-09-15T22:07:44.806Z,2.33
2018-09-15T22:10:13.362Z,3.10
2018-09-15T22:12:41.889Z,3.73
2018-09-15T22:15:16.667Z,5.63
2018-09-15T22:17:45.173Z,3.33
2018-09-15T22:20:13.708Z,4.13
2018-09-15T22:22:42.283Z,7.27
2018-09-15T22:25:10.802Z,2.47
2018-09-15T22:27:39.303Z,2.43
2018-09-15T22:30:09.214Z,2.50
2018-09-15T22:32:37.761Z,2.83
2018-09-15T22:35:06.322Z,2.93
2018-09-15T22:37:34.838Z,2.27
2018-09-15T22:40:04.272Z,2.73
2018-09-15T22:42:32.797Z,3.63
2018-09-15T22:45:01.342Z,5.70
2018-09-15T22:47:29.849Z,3.20
2018-09-15T22:49:58.383Z,1.93
2018-09-15T22:52:26.881Z,6.77
2018-09-15T22:54:55.414Z,3.37
2018-09-15T22:57:23.921Z,5.03
2018-09-15T22:59:52.448Z,3.07
2018-09-15T23:02:20.955Z,4.30
2018-09-15T23:04:49.477Z,2.40
2018-09-15T23:07:17.996Z,6.00
2018-09-15T23:09:46.531Z,4.13
2018-09-15T23:12:15.064Z,4.73
2018-09-15T23:14:43.598Z,3.97
2018-09-15T23:17:12.113Z,4.40
2018-09-15T23:19:40.660Z,11.03
2018-09-15T23:22:09.182Z,6.33
2018-09-15T23:24:37.718Z,3.40
2018-09-15T23:27:06.321Z,3.40
2018-09-15T23:29:34.849Z,3.30
2018-09-15T23:32:03.601Z,3.13
2018-09-15T23:34:32.126Z,3.30
2018-09-15T23:37:00.645Z,4.90
2018-09-15T23:39:29.173Z,3.70
2018-09-15T23:41:57.681Z,4.20
2018-09-15T23:44:26.209Z,4.13
2018-09-15T23:46:54.721Z,3.67
2018-09-15T23:49:23.264Z,3.37
2018-09-15T23:51:51.766Z,3.60
2018-09-15T23:54:20.422Z,2.73
2018-09-15T23:56:48.921Z,5.87
2018-09-15T23:59:17.456Z,4.00
